KOSC/OSC METAR and TAF weather

Enter ICAO airport designator
Station Type Date Time Source
KOSC METAR 2024/04/18 06:55 UTC NOAA

KOSC 180655Z AUTO 26009KT 10SM OVC018 10/08 A2978 RMK AO2 T01040082


Station Type Date Time Source
KOSC Decoded METAR 2024/04/18 06:55 UTC NOAA

Oscoda, Oscoda-Wurtsmith Airport, MI, United States (KOSC) 44-27N 083-22W
Apr 18, 2024 - 02:55 AM EDT / 2024.04.18 0655 UTC
Wind: from the W (260 degrees) at 10 MPH (9 KT):0
Visibility: 10 mile(s):0
Sky conditions: overcast
Temperature: 50.7 F (10.4 C)
Dew Point: 46.8 F (8.2 C)
Relative Humidity: 86%
Pressure (altimeter): 29.78 in. Hg (1008 hPa)
ob: KOSC 180655Z AUTO 26009KT 10SM OVC018 10/08 A2978 RMK AO2 T01040082
cycle: 7

Station Type Date Time Source
KOSC TAF UTC NOAA

Error!

Example: see airport list